Time;durP1;ratioP1;P1;durP2;ratioP2;P2;SDS_P1;SDS_P2;PMS_P1;PMS_P2;Temp;Humidity;BMP_temperature;BMP_pressure;BME280_temperature;BME280_humidity;BME280_pressure;Samples;Min_cycle;Max_cycle;Signal;HPM_P1;HPM_P2
2021/03/24 00:00:36;;;;;;;41.43;30.60;;;;;;;9.24;59.63;101933.09;5080861;28;20192;-74
2021/03/24 00:03:02;;;;;;;40.30;32.00;;;;;;;9.19;59.80;101933.78;5063107;28;20529;-73
2021/03/24 00:05:31;;;;;;;40.70;31.10;;;;;;;8.90;60.26;101933.63;5080783;28;20458;-73
2021/03/24 00:07:56;;;;;;;43.33;31.87;;;;;;;9.19;59.43;101936.38;5081298;28;20423;-73
2021/03/24 00:10:24;;;;;;;46.40;33.90;;;;;;;9.00;59.61;101930.53;5080663;28;20411;-73
2021/03/24 00:12:50;;;;;;;40.87;31.27;;;;;;;9.06;60.37;101928.13;5080532;28;20531;-74
2021/03/24 00:15:15;;;;;;;41.00;31.00;;;;;;;9.16;59.50;101926.75;5080989;28;20407;-75
2021/03/24 00:17:41;;;;;;;43.70;32.17;;;;;;;9.13;60.22;101925.75;5063025;28;20322;-74
2021/03/24 00:20:09;;;;;;;46.70;33.33;;;;;;;9.25;59.42;101934.88;5080710;28;20181;-74
2021/03/24 00:22:34;;;;;;;47.30;34.47;;;;;;;9.33;58.63;101935.09;5063452;28;20185;-74
2021/03/24 00:25:00;;;;;;;48.00;34.03;;;;;;;8.95;59.70;101933.81;5080201;28;20504;-74
2021/03/24 00:27:25;;;;;;;47.20;34.40;;;;;;;9.33;58.49;101927.31;5080177;28;20212;-75
2021/03/24 00:29:50;;;;;;;44.03;32.90;;;;;;;9.10;59.50;101936.94;5080838;28;20187;-74
2021/03/24 00:32:16;;;;;;;45.20;33.50;;;;;;;9.21;58.90;101937.31;5080425;28;20251;-74
2021/03/24 00:34:41;;;;;;;47.07;32.17;;;;;;;9.18;59.47;101934.59;5080309;28;20549;-74
2021/03/24 00:37:06;;;;;;;46.17;34.77;;;;;;;9.20;58.91;101935.53;5080595;28;20169;-74
2021/03/24 00:39:31;;;;;;;46.13;32.67;;;;;;;9.21;59.01;101932.97;5080236;28;20181;-73
2021/03/24 00:41:57;;;;;;;45.03;32.40;;;;;;;9.27;59.06;101948.81;5079928;28;20256;-74
2021/03/24 00:44:23;;;;;;;48.17;35.03;;;;;;;9.23;58.73;101946.06;5063051;28;20181;-74
2021/03/24 00:46:48;;;;;;;46.70;35.50;;;;;;;9.07;59.64;101932.50;5079751;28;20270;-75
2021/03/24 00:49:13;;;;;;;46.40;33.63;;;;;;;9.30;58.45;101931.53;5080103;28;20425;-74
2021/03/24 00:51:39;;;;;;;48.77;32.87;;;;;;;8.93;60.56;101931.16;5079762;28;20173;-73
2021/03/24 00:54:05;;;;;;;46.40;34.83;;;;;;;9.01;59.43;101929.69;5079889;28;20192;-74
2021/03/24 00:56:31;;;;;;;41.97;32.00;;;;;;;8.95;60.39;101929.47;5079901;28;20180;-73
2021/03/24 00:58:56;;;;;;;49.77;35.83;;;;;;;9.19;59.20;101928.56;5080322;28;20443;-74
2021/03/24 01:01:21;;;;;;;44.70;33.43;;;;;;;9.01;59.81;101927.09;5079657;28;20173;-74
2021/03/24 01:04:07;;;;;;;44.17;33.80;;;;;;;9.01;59.67;101921.00;5080260;28;20188;-74
2021/03/24 01:06:32;;;;;;;50.17;35.77;;;;;;;8.92;59.79;101918.97;5078788;28;20228;-74
2021/03/24 01:08:58;;;;;;;43.33;32.43;;;;;;;8.99;60.72;101922.66;5079615;28;20484;-74
2021/03/24 01:11:24;;;;;;;48.63;35.03;;;;;;;9.02;59.53;101921.03;5079793;28;20554;-73
2021/03/24 01:13:49;;;;;;;49.53;34.17;;;;;;;8.90;60.00;101910.22;5079444;28;20192;-74
2021/03/24 01:16:14;;;;;;;49.40;34.67;;;;;;;9.17;59.48;101919.81;5079454;28;20185;-74
2021/03/24 01:18:40;;;;;;;48.90;34.70;;;;;;;8.97;60.55;101909.63;5080106;28;20165;-74
2021/03/24 01:21:08;;;;;;;51.17;34.97;;;;;;;9.10;59.56;101916.13;5079707;28;20234;-74
2021/03/24 01:23:33;;;;;;;45.37;33.50;;;;;;;9.07;59.80;101918.63;5079080;28;20248;-73
2021/03/24 01:25:59;;;;;;;49.40;34.20;;;;;;;8.85;60.14;101923.06;5079453;28;20466;-73
2021/03/24 01:28:27;;;;;;;50.33;36.20;;;;;;;8.92;60.14;101912.03;5079277;28;20177;-74
2021/03/24 01:31:02;;;;;;;47.57;35.70;;;;;;;9.06;60.01;101914.25;5079491;28;20431;-74
2021/03/24 01:33:27;;;;;;;51.77;37.13;;;;;;;9.21;58.88;101913.88;5081324;28;20824;-74
2021/03/24 01:35:53;;;;;;;50.17;36.63;;;;;;;9.50;58.20;101907.06;5079046;28;20510;-73
2021/03/24 01:38:19;;;;;;;48.67;36.83;;;;;;;9.23;59.52;101910.50;5079756;28;20617;-72
2021/03/24 01:40:48;;;;;;;48.00;35.70;;;;;;;9.10;59.90;101916.13;5078974;28;20427;-73
2021/03/24 01:43:21;;;;;;;53.77;37.47;;;;;;;9.06;59.72;101916.84;5078904;28;20434;-74
2021/03/24 01:46:18;;;;;;;52.33;36.73;;;;;;;9.20;59.31;101907.81;5078789;28;20446;-73
2021/03/24 01:48:53;;;;;;;51.70;38.03;;;;;;;9.20;59.46;101917.31;5078783;28;20796;-73
2021/03/24 01:51:20;;;;;;;54.20;39.03;;;;;;;9.18;59.77;101904.25;5078774;28;20426;-73
2021/03/24 01:53:46;;;;;;;49.37;37.27;;;;;;;9.24;59.11;101904.47;5078965;28;20412;-74
2021/03/24 01:56:13;;;;;;;55.77;38.53;;;;;;;9.26;59.48;101901.91;5061648;28;20662;-73
2021/03/24 01:58:38;;;;;;;54.77;39.80;;;;;;;9.23;59.62;101904.44;5061416;28;20419;-72
2021/03/24 02:01:18;;;;;;;51.83;38.97;;;;;;;8.90;60.28;101900.72;5078403;28;20430;-73
2021/03/24 02:03:43;;;;;;;55.90;39.43;;;;;;;8.88;60.49;101904.09;5077762;28;20185;-74
2021/03/24 02:06:27;;;;;;;51.30;36.53;;;;;;;9.34;58.90;101902.19;5078373;28;20473;-74
2021/03/24 02:09:19;;;;;;;48.40;36.40;;;;;;;9.01;60.62;101905.38;5061164;28;20206;-73
2021/03/24 02:11:56;;;;;;;54.53;39.13;;;;;;;9.41;59.11;101898.94;5061004;28;20561;-73
2021/03/24 02:14:26;;;;;;;53.30;38.13;;;;;;;9.34;59.48;101897.84;5078072;28;20422;-74
2021/03/24 02:16:52;;;;;;;52.47;36.17;;;;;;;9.15;60.14;101900.69;5061110;28;20415;-75
2021/03/24 02:19:26;;;;;;;54.60;37.40;;;;;;;9.28;60.09;101897.63;5061077;28;20556;-73
2021/03/24 02:21:52;;;;;;;57.20;39.50;;;;;;;9.16;59.55;101895.53;5060883;28;20415;-73
2021/03/24 02:24:33;;;;;;;59.53;38.33;;;;;;;9.13;60.16;101903.19;5060278;28;20513;-74
2021/03/24 02:27:12;;;;;;;54.20;37.37;;;;;;;8.70;61.59;101899.09;5060852;28;20867;-72
2021/03/24 02:29:41;;;;;;;60.70;40.90;;;;;;;9.32;59.13;101899.50;5078281;28;20467;-73
2021/03/24 02:32:10;;;;;;;57.13;39.73;;;;;;;9.18;59.39;101891.25;5060828;28;20803;-72
2021/03/24 02:34:36;;;;;;;56.03;39.40;;;;;;;9.12;59.81;101896.25;5060462;28;20494;-71
2021/03/24 02:37:03;;;;;;;54.13;39.03;;;;;;;9.05;59.94;101886.44;5078462;28;20411;-72
2021/03/24 02:39:30;;;;;;;58.80;41.57;;;;;;;9.20;59.69;101891.28;5078622;28;20794;-72
2021/03/24 02:41:58;;;;;;;57.00;39.27;;;;;;;8.80;60.65;101895.13;5077870;28;20426;-72
2021/03/24 02:44:23;;;;;;;56.07;40.70;;;;;;;8.41;62.11;101896.28;5060596;28;20419;-71
2021/03/24 02:46:49;;;;;;;59.80;39.00;;;;;;;8.92;60.94;101891.22;5078330;28;20439;-74
2021/03/24 02:49:15;;;;;;;62.30;40.20;;;;;;;8.80;61.43;101884.72;5060533;28;20427;-73
2021/03/24 02:51:40;;;;;;;54.30;38.40;;;;;;;8.82;60.51;101885.66;5077730;28;20197;-73
2021/03/24 02:54:10;;;;;;;55.93;37.50;;;;;;;8.70;61.68;101884.41;5060710;28;20165;-73
2021/03/24 02:56:36;;;;;;;55.33;39.83;;;;;;;8.90;60.75;101892.00;5040601;28;20201;-75
2021/03/24 02:59:03;;;;;;;52.70;37.90;;;;;;;8.81;60.85;101884.78;5040586;28;20683;-75
2021/03/24 03:01:40;;;;;;;54.00;38.93;;;;;;;9.00;60.83;101885.41;5058098;28;20243;-74
2021/03/24 03:04:13;;;;;;;59.50;42.00;;;;;;;8.95;60.07;101881.78;5040657;28;20416;-72
2021/03/24 03:06:39;;;;;;;61.37;41.00;;;;;;;8.84;60.83;101876.22;5040498;28;20464;-73
2021/03/24 03:09:09;;;;;;;56.17;40.80;;;;;;;8.72;61.21;101882.72;5054446;28;20438;-72
2021/03/24 03:11:59;;;;;;;64.67;41.27;;;;;;;9.00;60.80;101870.69;5060047;28;20435;-72
2021/03/24 03:14:36;;;;;;;58.10;39.60;;;;;;;8.86;60.63;101877.13;5032565;28;20434;-72
2021/03/24 03:17:08;;;;;;;60.40;40.30;;;;;;;8.86;61.10;101870.22;5064535;28;20685;-72
2021/03/24 03:19:37;;;;;;;60.70;41.07;;;;;;;8.94;60.68;101867.88;5064320;28;20816;-72
2021/03/24 03:22:05;;;;;;;60.73;39.63;;;;;;;8.94;60.66;101878.28;5064055;28;20419;-73
2021/03/24 03:24:49;;;;;;;55.70;41.20;;;;;;;9.16;60.27;101863.41;5064463;28;20516;-74
2021/03/24 03:27:17;;;;;;;62.23;43.73;;;;;;;9.23;59.48;101868.00;5081693;28;20739;-73
2021/03/24 03:29:44;;;;;;;60.93;42.53;;;;;;;8.82;60.71;101872.66;5066830;28;20426;-71
2021/03/24 03:32:12;;;;;;;59.60;41.10;;;;;;;8.91;60.52;101875.56;5047577;28;20435;-72
2021/03/24 03:34:39;;;;;;;58.47;41.63;;;;;;;8.69;60.89;101872.22;5064546;28;20505;-72
2021/03/24 03:37:05;;;;;;;59.87;40.87;;;;;;;8.60;61.12;101877.09;5046730;28;20441;-73
2021/03/24 03:39:32;;;;;;;59.43;42.03;;;;;;;8.85;60.38;101867.56;5063999;28;20426;-73
2021/03/24 03:42:00;;;;;;;56.83;39.90;;;;;;;8.86;60.28;101869.31;5081673;28;20407;-73
2021/03/24 03:44:26;;;;;;;62.10;41.10;;;;;;;9.06;59.65;101873.50;5063734;28;20419;-71
2021/03/24 03:46:54;;;;;;;60.23;39.73;;;;;;;8.41;61.92;101878.09;5063624;28;20489;-72
2021/03/24 03:49:26;;;;;;;62.03;41.97;;;;;;;9.12;59.67;101864.13;5064370;28;20165;-75
2021/03/24 03:52:08;;;;;;;59.03;39.87;;;;;;;9.06;59.41;101870.88;5064245;28;20429;-73
2021/03/24 03:54:37;;;;;;;60.97;43.10;;;;;;;8.93;60.60;101867.00;5064016;28;20418;-73
2021/03/24 03:57:06;;;;;;;65.30;40.73;;;;;;;8.83;60.57;101875.31;5080990;28;20730;-73
2021/03/24 04:00:15;;;;;;;59.47;40.27;;;;;;;9.09;59.60;101871.00;5080981;28;20438;-75
2021/03/24 04:03:06;;;;;;;54.50;38.70;;;;;;;8.76;60.69;101882.00;5080965;28;20435;-73
2021/03/24 04:05:35;;;;;;;62.30;39.27;;;;;;;8.76;60.94;101874.19;5081156;28;20805;-73
2021/03/24 04:08:10;;;;;;;56.83;40.33;;;;;;;9.18;59.12;101874.75;5063080;28;20479;-73
2021/03/24 04:10:47;;;;;;;;;;;;;;;;;;;;;
2021/03/24 04:13:14;;;;;;;64.17;43.07;;;;;;;9.31;58.85;101863.94;5063290;28;20761;-73
2021/03/24 04:15:39;;;;;;;59.30;40.40;;;;;;;8.89;59.95;101878.13;5080642;28;20418;-72
2021/03/24 04:18:08;;;;;;;57.10;40.23;;;;;;;8.83;60.10;101879.63;5080685;28;20684;-72
2021/03/24 04:20:34;;;;;;;62.67;40.27;;;;;;;9.14;59.22;101865.09;5063090;28;20259;-73
2021/03/24 04:23:01;;;;;;;57.20;39.70;;;;;;;8.91;60.12;101867.78;5063137;28;20434;-72
2021/03/24 04:25:34;;;;;;;55.40;40.40;;;;;;;8.84;60.08;101873.59;5062877;28;20505;-72
2021/03/24 04:28:01;;;;;;;56.30;39.73;;;;;;;9.03;60.20;101873.41;5062260;28;20906;-72
2021/03/24 04:30:32;;;;;;;61.00;41.63;;;;;;;9.18;60.11;101869.56;5063084;28;20425;-73
2021/03/24 04:32:57;;;;;;;62.97;42.30;;;;;;;9.30;58.74;101875.16;5062753;28;20419;-72
2021/03/24 04:35:23;;;;;;;59.30;41.57;;;;;;;9.24;60.05;101875.84;5080807;28;20403;-72
2021/03/24 04:37:55;;;;;;;62.47;41.07;;;;;;;9.29;58.63;101873.38;5079932;28;20298;-74
2021/03/24 04:40:24;;;;;;;57.23;40.00;;;;;;;9.04;59.64;101877.78;5062760;28;20437;-73
2021/03/24 04:43:10;;;;;;;59.93;40.43;;;;;;;8.75;60.91;101881.94;5062716;28;20412;-72
2021/03/24 04:45:57;;;;;;;60.00;40.90;;;;;;;9.30;59.32;101876.91;5062744;28;20423;-73
2021/03/24 04:48:29;;;;;;;61.60;41.20;;;;;;;8.93;60.43;101887.81;5062702;28;20451;-73
2021/03/24 04:51:00;;;;;;;67.20;41.63;;;;;;;9.02;59.84;101889.81;5080046;28;20419;-72
2021/03/24 04:53:29;;;;;;;72.63;40.20;;;;;;;8.91;59.94;101886.84;5062354;28;20443;-73
2021/03/24 04:55:55;;;;;;;71.67;42.27;;;;;;;8.91;61.02;101891.19;5062456;28;20430;-72
2021/03/24 04:58:28;;;;;;;60.17;39.47;;;;;;;9.17;60.65;101889.47;5062542;28;20430;-72
2021/03/24 05:01:02;;;;;;;62.73;42.80;;;;;;;8.96;60.24;101879.22;5062433;28;20577;-72
2021/03/24 05:03:30;;;;;;;71.10;46.63;;;;;;;8.42;61.90;101891.16;5060457;28;20466;-72
2021/03/24 05:05:58;;;;;;;57.70;38.37;;;;;;;8.45;61.84;101889.50;5079290;28;20476;-72
2021/03/24 05:08:34;;;;;;;60.13;42.77;;;;;;;9.12;60.21;101879.75;5062418;28;20429;-74
2021/03/24 05:11:03;;;;;;;67.37;42.57;;;;;;;8.76;61.04;101891.53;5062284;28;20470;-71
2021/03/24 05:13:53;;;;;;;65.13;42.67;;;;;;;8.29;62.72;101880.25;5062440;28;20812;-71
2021/03/24 05:16:27;;;;;;;65.07;44.20;;;;;;;8.58;61.37;101882.25;5062296;28;20419;-71
2021/03/24 05:18:53;;;;;;;64.10;43.40;;;;;;;8.97;61.22;101878.41;5062018;28;20454;-73
2021/03/24 05:21:27;;;;;;;66.53;42.90;;;;;;;9.06;60.29;101873.50;5061295;28;20439;-74
2021/03/24 05:23:57;;;;;;;66.10;42.57;;;;;;;9.08;60.43;101874.44;5061280;28;22206;-74
2021/03/24 05:26:52;;;;;;;68.10;41.30;;;;;;;8.88;60.31;101884.16;5062808;28;20467;-73
2021/03/24 05:29:22;;;;;;;62.87;41.57;;;;;;;9.08;59.89;101884.84;5075048;28;20534;-72
2021/03/24 05:31:50;;;;;;;70.10;44.47;;;;;;;8.79;60.65;101886.44;5060757;28;20442;-72
2021/03/24 05:34:18;;;;;;;69.13;44.07;;;;;;;8.65;63.38;101890.28;5061920;28;20807;-72
2021/03/24 05:36:46;;;;;;;70.00;44.97;;;;;;;8.62;61.20;101872.84;5057063;28;20427;-72
2021/03/24 05:39:25;;;;;;;72.17;41.20;;;;;;;8.93;61.00;101884.34;5060648;28;20480;-72
2021/03/24 05:42:03;;;;;;;63.80;43.00;;;;;;;8.84;61.03;101881.41;5078909;28;20441;-72
2021/03/24 05:44:47;;;;;;;71.03;44.67;;;;;;;8.77;61.70;101898.50;5061645;28;20736;-71
2021/03/24 05:47:37;;;;;;;65.13;42.40;;;;;;;9.14;60.36;101888.50;5077604;28;20478;-71
2021/03/24 05:50:41;;;;;;;67.23;41.80;;;;;;;8.91;60.85;101891.19;5058204;28;20416;-73
2021/03/24 05:53:07;;;;;;;65.47;40.77;;;;;;;8.92;60.60;101892.97;4999847;28;20443;-73
2021/03/24 05:55:32;;;;;;;67.43;43.27;;;;;;;8.48;61.92;101898.31;4998214;28;20417;-73
2021/03/24 05:58:06;;;;;;;64.90;43.07;;;;;;;8.77;61.77;101888.09;5025931;28;20189;-73
2021/03/24 06:00:34;;;;;;;69.03;42.87;;;;;;;8.89;61.31;101885.94;5059959;28;20169;-73
2021/03/24 06:03:05;;;;;;;63.00;41.93;;;;;;;8.85;61.05;101890.94;5078243;28;20458;-72
2021/03/24 06:05:38;;;;;;;62.80;40.87;;;;;;;8.79;61.07;101885.56;5060414;28;20521;-73
2021/03/24 06:08:03;;;;;;;68.60;43.07;;;;;;;9.17;59.59;101878.19;5060095;28;20884;-72
2021/03/24 06:10:42;;;;;;;67.43;40.43;;;;;;;8.97;60.83;101880.09;5077751;28;20450;-72
2021/03/24 06:13:23;;;;;;;63.43;40.87;;;;;;;9.03;60.49;101875.13;5076420;28;20192;-73
2021/03/24 06:16:03;;;;;;;61.73;40.37;;;;;;;9.17;59.94;101875.59;5078632;28;20849;-73
2021/03/24 06:18:37;;;;;;;61.83;39.93;;;;;;;9.20;60.15;101875.69;5077363;28;20442;-73
2021/03/24 06:21:05;;;;;;;62.53;39.77;;;;;;;9.24;59.90;101869.75;5060120;28;20435;-73
2021/03/24 06:24:01;;;;;;;61.40;39.13;;;;;;;9.30;59.22;101872.56;5059010;28;20500;-72
2021/03/24 06:26:57;;;;;;;59.63;40.07;;;;;;;9.56;58.96;101890.75;5078441;28;20481;-71
2021/03/24 06:29:43;;;;;;;62.47;40.40;;;;;;;9.84;57.82;101889.03;5078167;28;20399;-72
2021/03/24 06:32:46;;;;;;;65.80;41.27;;;;;;;9.09;60.14;101877.91;5057642;28;20447;-76
2021/03/24 06:35:32;;;;;;;59.60;40.93;;;;;;;9.37;59.57;101874.53;5076894;28;20765;-76
2021/03/24 06:38:25;;;;;;;58.53;40.40;;;;;;;9.32;59.46;101889.09;5058038;28;20423;-76
2021/03/24 06:40:58;;;;;;;62.33;40.93;;;;;;;9.41;59.22;101884.19;5059226;28;20437;-75
2021/03/24 06:43:50;;;;;;;59.33;41.57;;;;;;;9.31;60.07;101882.16;5063510;28;20443;-73
2021/03/24 06:46:33;;;;;;;67.67;41.30;;;;;;;9.57;58.50;101884.72;5049654;28;20458;-71
2021/03/24 06:49:38;;;;;;;61.90;43.27;;;;;;;9.50;58.94;101886.22;5061350;28;20468;-73
2021/03/24 06:52:36;;;;;;;63.13;42.83;;;;;;;9.90;57.97;101886.59;5013617;28;20470;-72
2021/03/24 06:55:34;;;;;;;56.20;37.00;;;;;;;9.46;57.69;101871.34;5059135;28;20436;-72
2021/03/24 06:58:23;;;;;;;53.33;37.30;;;;;;;9.70;57.85;101870.34;5026854;28;20444;-71
2021/03/24 07:01:17;;;;;;;56.97;37.50;;;;;;;9.94;56.50;101886.75;5043721;28;20444;-76
2021/03/24 07:03:52;;;;;;;57.83;38.60;;;;;;;9.75;56.48;101885.28;5063922;28;20541;-74
2021/03/24 07:06:38;;;;;;;54.00;37.00;;;;;;;9.78;57.21;101871.47;5054800;28;20458;-75
2021/03/24 07:09:09;;;;;;;57.80;39.80;;;;;;;9.96;56.78;101863.34;5055997;28;20863;-73
2021/03/24 07:11:50;;;;;;;54.13;37.63;;;;;;;10.42;55.32;101885.59;5057645;28;20432;-74
2021/03/24 07:14:33;;;;;;;61.80;41.03;;;;;;;9.77;56.29;101887.97;5045733;28;20654;-75
2021/03/24 07:17:29;;;;;;;57.60;41.10;;;;;;;9.93;55.93;101889.28;5042596;28;20794;-74
2021/03/24 07:20:28;;;;;;;52.33;35.87;;;;;;;9.87;56.36;101890.00;5056765;28;20485;-73
2021/03/24 07:23:05;;;;;;;50.27;35.13;;;;;;;9.98;55.64;101897.25;5065346;28;20480;-74
2021/03/24 07:25:39;;;;;;;54.37;37.00;;;;;;;10.10;56.25;101900.25;5065594;28;20519;-75
2021/03/24 07:28:27;;;;;;;49.70;36.60;;;;;;;9.66;57.43;101891.91;5057087;28;20582;-77
2021/03/24 07:31:28;;;;;;;57.60;39.67;;;;;;;9.85;56.91;101896.00;5040347;28;20477;-76
2021/03/24 07:34:25;;;;;;;59.20;37.50;;;;;;;9.89;56.80;101897.84;5057684;28;20817;-76
2021/03/24 07:37:08;;;;;;;61.93;42.50;;;;;;;10.32;56.31;101893.94;5040256;28;20683;-76
2021/03/24 07:40:11;;;;;;;61.70;40.10;;;;;;;10.02;57.56;101902.59;5043950;28;20423;-78
2021/03/24 07:42:58;;;;;;;58.13;37.60;;;;;;;10.39;57.04;101897.63;5073962;28;20448;-77
2021/03/24 07:45:36;;;;;;;60.77;39.53;;;;;;;10.20;56.79;101894.47;5060663;28;20475;-77
2021/03/24 07:48:18;;;;;;;56.93;39.20;;;;;;;10.31;56.36;101900.00;5040776;28;20690;-78
2021/03/24 07:50:50;;;;;;;56.80;38.30;;;;;;;9.84;58.43;101902.06;5076565;28;20451;-76
2021/03/24 07:53:35;;;;;;;65.30;43.90;;;;;;;10.31;57.23;101905.22;5054504;28;20446;-75
2021/03/24 07:56:42;;;;;;;60.33;42.30;;;;;;;10.15;57.62;101889.94;5039965;28;20471;-74
2021/03/24 07:59:29;;;;;;;64.60;41.87;;;;;;;10.25;57.80;101907.63;5070463;28;20702;-74
2021/03/24 08:02:28;;;;;;;63.43;41.20;;;;;;;10.23;57.78;101907.59;5071148;28;20692;-75
2021/03/24 08:05:06;;;;;;;60.63;42.53;;;;;;;10.63;56.40;101894.84;5047306;28;20451;-74
2021/03/24 08:08:00;;;;;;;62.23;43.77;;;;;;;10.70;56.52;101902.03;5043018;28;20472;-75
2021/03/24 08:10:34;;;;;;;59.03;41.70;;;;;;;10.54;56.15;101903.31;5060481;28;20508;-75
2021/03/24 08:13:14;;;;;;;62.80;43.17;;;;;;;10.29;57.32;101899.06;5044426;28;20447;-74
2021/03/24 08:15:54;;;;;;;63.27;44.57;;;;;;;10.57;56.48;101897.31;5061182;28;20448;-74
2021/03/24 08:18:50;;;;;;;63.83;44.30;;;;;;;10.87;55.52;101899.84;5050720;28;20446;-75
2021/03/24 08:21:46;;;;;;;59.97;40.93;;;;;;;11.42;54.64;101900.41;5064618;28;20912;-73
2021/03/24 08:24:29;;;;;;;60.97;43.63;;;;;;;11.33;54.63;101899.31;5077283;28;20467;-75
2021/03/24 08:27:00;;;;;;;61.73;42.60;;;;;;;11.66;53.75;101893.13;5062747;28;20702;-74
2021/03/24 08:30:03;;;;;;;62.67;44.50;;;;;;;11.50;54.14;101898.00;5045409;28;20428;-74
2021/03/24 08:32:58;;;;;;;58.53;42.50;;;;;;;11.33;54.34;101892.34;5060222;28;20443;-73
2021/03/24 08:36:01;;;;;;;58.00;41.13;;;;;;;12.08;52.23;101892.38;5060453;28;20522;-72
2021/03/24 08:39:03;;;;;;;51.83;38.80;;;;;;;11.90;53.55;101892.81;5059842;28;20424;-74
2021/03/24 08:41:54;;;;;;;59.67;42.50;;;;;;;12.52;51.89;101888.94;5079345;28;20437;-74
2021/03/24 08:44:38;;;;;;;55.63;40.73;;;;;;;13.35;49.37;101887.84;5045640;28;20436;-74
2021/03/24 08:47:14;;;;;;;53.30;41.70;;;;;;;13.41;49.69;101885.34;5059900;28;20470;-72
2021/03/24 08:49:44;;;;;;;59.27;42.50;;;;;;;14.97;45.60;101870.78;5042822;28;20538;-75
2021/03/24 08:52:20;;;;;;;57.20;43.73;;;;;;;14.94;45.34;101869.00;5043006;28;20756;-78
2021/03/24 08:55:04;;;;;;;58.63;42.50;;;;;;;14.11;47.03;101876.78;5063508;28;20728;-75
2021/03/24 08:57:48;;;;;;;53.17;41.47;;;;;;;14.01;46.79;101880.13;5079573;28;20488;-76
2021/03/24 09:00:32;;;;;;;56.43;43.37;;;;;;;15.20;44.49;101873.63;5055457;28;20450;-72
2021/03/24 09:03:21;;;;;;;51.47;41.50;;;;;;;14.82;44.88;101869.75;5066940;28;20433;-74
2021/03/24 09:06:13;;;;;;;53.13;41.50;;;;;;;14.91;44.90;101873.34;5075847;28;20407;-72
2021/03/24 09:08:42;;;;;;;51.03;42.43;;;;;;;15.08;44.38;101871.75;5056188;28;20446;-73
2021/03/24 09:11:30;;;;;;;51.00;43.93;;;;;;;14.77;45.16;101871.44;5074164;28;20427;-71
2021/03/24 09:14:24;;;;;;;56.80;43.70;;;;;;;14.78;45.94;101873.22;5061283;28;20457;-72
2021/03/24 09:16:53;;;;;;;56.20;43.50;;;;;;;15.76;43.78;101860.88;5077336;28;20418;-77
2021/03/24 09:19:46;;;;;;;52.77;42.00;;;;;;;15.07;44.83;101870.00;5074689;28;20408;-77
2021/03/24 09:22:23;;;;;;;53.27;41.33;;;;;;;15.35;43.71;101869.38;5069066;28;20420;-76
2021/03/24 09:25:07;;;;;;;50.13;41.97;;;;;;;15.03;44.35;101865.56;5065401;28;20434;-75
2021/03/24 09:27:48;;;;;;;50.17;40.80;;;;;;;15.34;44.09;101857.97;5060966;28;20508;-76
2021/03/24 09:30:32;;;;;;;51.97;42.00;;;;;;;15.97;42.89;101860.16;5066713;28;20511;-77
2021/03/24 09:33:16;;;;;;;46.27;37.20;;;;;;;16.37;42.26;101856.81;5066287;28;20410;-77
2021/03/24 09:36:09;;;;;;;46.13;37.47;;;;;;;16.60;40.89;101852.50;5058881;28;20439;-77
2021/03/24 09:38:35;;;;;;;47.13;39.33;;;;;;;15.94;42.06;101862.75;5058759;28;20423;-73
2021/03/24 09:41:39;;;;;;;46.30;40.33;;;;;;;16.28;41.66;101852.41;5056629;28;20419;-74
2021/03/24 09:44:16;;;;;;;45.10;39.73;;;;;;;17.20;39.55;101850.84;5058473;28;20747;-75
2021/03/24 09:46:44;;;;;;;48.60;39.80;;;;;;;16.02;42.08;101854.91;5040783;28;20484;-74
2021/03/24 09:49:24;;;;;;;45.83;39.67;;;;;;;15.33;43.02;101854.47;5065862;28;20450;-74
2021/03/24 09:52:21;;;;;;;46.50;40.17;;;;;;;15.62;42.72;101847.66;5041677;28;20439;-76
2021/03/24 09:54:56;;;;;;;47.63;38.40;;;;;;;15.94;42.22;101852.22;5033743;28;20511;-75
2021/03/24 09:57:25;;;;;;;41.50;36.07;;;;;;;16.33;41.02;101848.03;5065373;28;20700;-75
2021/03/24 10:00:03;;;;;;;47.83;38.80;;;;;;;16.89;40.18;101837.66;5066623;28;20439;-74
2021/03/24 10:02:30;;;;;;;42.57;35.63;;;;;;;15.96;41.84;101840.00;5053926;28;20439;-75
2021/03/24 10:05:02;;;;;;;39.70;35.40;;;;;;;16.41;41.66;101838.44;5060000;28;20448;-74
2021/03/24 10:07:30;;;;;;;43.63;38.50;;;;;;;16.74;40.13;101836.75;5040666;28;20571;-74
2021/03/24 10:10:06;;;;;;;43.87;36.07;;;;;;;16.80;40.95;101834.09;5058574;28;20422;-73
2021/03/24 10:12:40;;;;;;;43.13;38.43;;;;;;;16.05;41.58;101842.66;5068720;28;20439;-71
2021/03/24 10:15:29;;;;;;;48.00;39.17;;;;;;;16.66;40.45;101833.22;5043711;28;20836;-70
2021/03/24 10:17:59;;;;;;;46.10;38.87;;;;;;;16.24;41.03;101832.22;5064843;28;20432;-71
2021/03/24 10:20:26;;;;;;;46.33;36.87;;;;;;;16.05;41.43;101837.41;5058790;28;20429;-72
2021/03/24 10:23:10;;;;;;;46.93;40.30;;;;;;;15.72;41.85;101841.59;5059688;28;20837;-73
2021/03/24 10:25:41;;;;;;;44.53;37.63;;;;;;;15.70;41.74;101839.81;5056741;28;20737;-74
2021/03/24 10:28:12;;;;;;;53.00;44.47;;;;;;;14.59;44.95;101845.00;5055275;28;20467;-72
2021/03/24 10:30:42;;;;;;;55.30;41.57;;;;;;;14.31;47.14;101845.56;5060203;28;20736;-72
2021/03/24 10:33:23;;;;;;;51.27;40.67;;;;;;;14.17;46.62;101836.63;5046584;28;20848;-73
2021/03/24 10:36:04;;;;;;;53.20;40.40;;;;;;;13.84;47.27;101831.81;5058575;28;20533;-72
2021/03/24 10:38:52;;;;;;;51.33;40.97;;;;;;;14.10;46.02;101835.69;5041083;28;20432;-71
2021/03/24 10:41:22;;;;;;;50.43;40.30;;;;;;;13.81;47.12;101833.56;5052827;28;20450;-72
2021/03/24 10:43:52;;;;;;;48.07;37.90;;;;;;;14.06;47.50;101831.25;5054732;28;20420;-71
2021/03/24 10:46:26;;;;;;;55.30;42.13;;;;;;;14.06;47.29;101830.34;5077076;28;20865;-71
2021/03/24 10:48:57;;;;;;;52.23;40.70;;;;;;;13.95;47.83;101828.50;5053100;28;20436;-70
2021/03/24 10:51:35;;;;;;;50.47;41.00;;;;;;;14.26;47.20;101822.75;5062008;28;20430;-74
2021/03/24 10:54:11;;;;;;;50.60;39.03;;;;;;;14.03;47.52;101822.47;5060973;28;20557;-75
2021/03/24 10:57:00;;;;;;;51.27;40.87;;;;;;;14.30;46.31;101824.53;5042475;28;20813;-73
2021/03/24 10:59:32;;;;;;;59.13;43.73;;;;;;;14.52;45.96;101807.31;5048051;28;20927;-72
2021/03/24 11:02:12;;;;;;;48.03;38.50;;;;;;;15.54;42.62;101807.31;5064456;28;20542;-76
2021/03/24 11:04:54;;;;;;;46.23;38.10;;;;;;;15.02;42.70;101810.41;5076029;28;20408;-75
2021/03/24 11:07:45;;;;;;;44.80;37.80;;;;;;;16.08;39.84;101807.59;5040696;28;20472;-81
2021/03/24 11:10:35;;;;;;;38.20;31.63;;;;;;;16.60;37.57;101801.59;5039913;28;20422;-75
2021/03/24 11:13:03;;;;;;;38.40;33.80;;;;;;;16.87;36.99;101797.25;5057511;28;20406;-72
2021/03/24 11:15:38;;;;;;;38.53;34.33;;;;;;;16.98;36.31;101785.88;5039825;28;20429;-72
2021/03/24 11:18:11;;;;;;;36.37;32.40;;;;;;;16.51;37.63;101791.94;5057495;28;20409;-73
2021/03/24 11:20:44;;;;;;;36.20;32.40;;;;;;;16.77;38.12;101794.59;5065549;28;20975;-73
2021/03/24 11:23:17;;;;;;;37.53;33.50;;;;;;;17.21;36.50;101786.72;5042588;28;20479;-73
2021/03/24 11:25:48;;;;;;;38.40;33.57;;;;;;;16.47;38.11;101796.31;5044598;28;20561;-72
2021/03/24 11:28:24;;;;;;;38.23;32.60;;;;;;;16.85;37.51;101799.88;5057580;28;20519;-73
2021/03/24 11:31:23;;;;;;;38.20;33.80;;;;;;;16.01;38.69;101801.44;5057491;28;20414;-72
2021/03/24 11:33:54;;;;;;;38.77;32.57;;;;;;;16.94;37.50;101796.38;5074199;28;20501;-73
2021/03/24 11:37:04;;;;;;;36.60;30.80;;;;;;;16.28;38.52;101790.13;5056448;28;20439;-75
2021/03/24 11:39:39;;;;;;;37.80;33.50;;;;;;;17.03;37.93;101783.22;5061095;28;20916;-79
2021/03/24 11:42:14;;;;;;;38.00;33.83;;;;;;;17.18;36.87;101782.31;5060761;28;20585;-79
2021/03/24 11:44:41;;;;;;;37.87;31.30;;;;;;;16.22;38.55;101778.72;5060836;28;20458;-78
2021/03/24 11:47:13;;;;;;;38.90;33.10;;;;;;;16.35;38.91;101775.25;5062722;28;20489;-78
2021/03/24 11:50:10;;;;;;;35.93;31.50;;;;;;;16.89;36.99;101769.16;5080324;28;20888;-79
2021/03/24 11:52:41;;;;;;;39.33;34.63;;;;;;;17.95;35.20;101766.31;5070772;28;20531;-76
2021/03/24 11:55:31;;;;;;;37.60;33.63;;;;;;;16.75;37.26;101759.50;5061629;28;20471;-76
2021/03/24 11:58:32;;;;;;;37.93;32.83;;;;;;;17.14;36.45;101763.03;5063265;28;20455;-75